Morioka, Japan
Current Conditions -  °F | °C
As of 4:00 PM on Friday 24 Oct 2014 (Local Time) from RJSK Reporting Station
Scattered Clouds Scattered Clouds  
Wind Chill: 61°   Ceiling: Unl
Heat Index: 61°   Visibility: 6mi
Dew Point: 50°   Wind: 7mph
Humidity: 68%   Direction: 290°WNW
Pressure: 30.12"   Gusts: NA
Location:  39.7°N, 141.15°E
Report Text: RJSK 240700Z 29006KT 9999 SCT030 16/10 Q1020
Loading
Personal Weather Stations






























Interactive Weather Map
Tropical Storm Tracking
New forecast layout! Learn more

10-Day Weather Forecast

Advertisements
Track Severe Weather on mobile